createdAt,value
2018-08-24T00:00:13.325Z,13.13
2018-08-24T00:02:41.547Z,12.80
2018-08-24T00:05:09.734Z,12.70
2018-08-24T00:07:37.966Z,15.67
2018-08-24T00:10:06.225Z,13.93
2018-08-24T00:12:34.445Z,14.80
2018-08-24T00:15:02.639Z,14.07
2018-08-24T00:17:31.503Z,13.77
2018-08-24T00:20:00.510Z,13.70
2018-08-24T00:22:28.791Z,15.87
2018-08-24T00:24:57.009Z,15.47
2018-08-24T00:27:25.291Z,14.83
2018-08-24T00:29:53.484Z,21.17
2018-08-24T00:32:21.708Z,13.37
2018-08-24T00:34:49.919Z,13.03
2018-08-24T00:37:18.152Z,14.30
2018-08-24T00:39:46.363Z,13.60
2018-08-24T00:42:14.587Z,14.67
2018-08-24T00:44:42.991Z,13.10
2018-08-24T00:47:11.359Z,12.90
2018-08-24T00:49:39.567Z,13.23
2018-08-24T00:52:07.774Z,14.50
2018-08-24T00:54:36.267Z,16.70
2018-08-24T00:57:04.580Z,17.33
2018-08-24T00:59:32.831Z,16.27
2018-08-24T01:02:01.044Z,19.93
2018-08-24T01:04:33.302Z,17.77
2018-08-24T01:07:05.571Z,16.50
2018-08-24T01:09:34.016Z,15.70
2018-08-24T01:12:07.574Z,15.70
2018-08-24T01:14:35.792Z,14.97
2018-08-24T01:17:09.419Z,14.80
2018-08-24T01:19:37.642Z,18.53
2018-08-24T01:22:05.855Z,18.13
2018-08-24T01:24:34.087Z,17.40
2018-08-24T01:27:02.827Z,16.20
2018-08-24T01:29:32.351Z,20.43
2018-08-24T01:32:00.539Z,22.37
2018-08-24T01:34:28.787Z,20.77
2018-08-24T01:36:57.004Z,23.83
2018-08-24T01:39:25.219Z,19.57
2018-08-24T01:41:53.447Z,21.97
2018-08-24T01:44:21.667Z,20.67
2018-08-24T01:46:49.867Z,21.03
2018-08-24T01:49:18.089Z,20.87
2018-08-24T01:51:46.307Z,18.47
2018-08-24T01:54:14.500Z,16.90
2018-08-24T01:56:42.707Z,16.63
2018-08-24T01:59:11.455Z,18.33
2018-08-24T02:01:39.836Z,16.17
2018-08-24T02:04:08.096Z,17.17
2018-08-24T02:06:36.311Z,17.03
2018-08-24T02:09:09.399Z,15.83
2018-08-24T02:11:37.765Z,16.17
2018-08-24T02:14:10.884Z,13.93
2018-08-24T02:16:40.538Z,13.83
2018-08-24T02:19:13.982Z,13.63
2018-08-24T02:21:47.499Z,15.80
2018-08-24T02:24:15.707Z,15.10
2018-08-24T02:26:44.799Z,18.17
2018-08-24T02:29:13.159Z,16.10
2018-08-24T02:31:46.999Z,15.80
2018-08-24T02:34:15.262Z,16.77
2018-08-24T02:36:44.027Z,17.57
2018-08-24T02:39:14.050Z,13.77
2018-08-24T02:41:42.502Z,13.90
2018-08-24T02:44:11.126Z,14.00
2018-08-24T02:46:40.015Z,16.37
2018-08-24T02:49:08.238Z,14.10
2018-08-24T02:51:36.629Z,12.27
2018-08-24T02:54:04.848Z,13.37
2018-08-24T02:56:33.305Z,12.03
2018-08-24T02:59:01.665Z,12.50
2018-08-24T03:01:29.896Z,10.37
2018-08-24T03:03:58.092Z,12.23
2018-08-24T03:06:26.295Z,11.60
2018-08-24T03:08:54.520Z,10.80
2018-08-24T03:11:23.013Z,10.37
2018-08-24T03:13:51.224Z,9.00
2018-08-24T03:16:19.427Z,9.43
2018-08-24T03:18:47.646Z,12.63
2018-08-24T03:21:15.956Z,10.47
2018-08-24T03:23:44.147Z,8.10
2018-08-24T03:26:12.376Z,11.10
2018-08-24T03:28:40.643Z,8.63
2018-08-24T03:31:08.957Z,10.43
2018-08-24T03:33:37.159Z,7.63
2018-08-24T03:36:05.371Z,8.43
2018-08-24T03:38:33.584Z,7.90
2018-08-24T03:41:01.808Z,7.17
2018-08-24T03:43:30.019Z,8.43
2018-08-24T03:45:58.240Z,8.47
2018-08-24T03:48:26.448Z,11.47
2018-08-24T03:50:54.679Z,8.37
2018-08-24T03:53:23.016Z,7.27
2018-08-24T03:55:51.108Z,9.10
2018-08-24T03:58:19.308Z,8.83
2018-08-24T04:00:47.616Z,7.17
2018-08-24T04:03:15.892Z,11.00
2018-08-24T04:05:44.093Z,7.77
2018-08-24T04:08:12.384Z,10.67
2018-08-24T04:10:40.757Z,9.90
2018-08-24T04:13:08.941Z,7.60
2018-08-24T04:15:37.164Z,8.77
2018-08-24T04:18:05.908Z,8.50
2018-08-24T04:20:34.093Z,8.17
2018-08-24T04:23:02.291Z,8.13
2018-08-24T04:25:30.521Z,11.10
2018-08-24T04:27:58.686Z,10.60
2018-08-24T04:30:26.920Z,10.80
2018-08-24T04:32:55.135Z,9.43
2018-08-24T04:35:23.333Z,11.27
2018-08-24T04:37:51.543Z,10.63
2018-08-24T04:40:19.764Z,10.73
2018-08-24T04:42:47.971Z,9.70
2018-08-24T04:45:16.151Z,9.00
2018-08-24T04:47:44.351Z,9.90
2018-08-24T04:50:12.551Z,9.43
2018-08-24T04:52:40.754Z,9.43
2018-08-24T04:55:08.991Z,10.67
2018-08-24T04:57:37.200Z,7.90
2018-08-24T05:00:06.096Z,8.00
2018-08-24T05:02:34.804Z,9.10
2018-08-24T05:05:03.028Z,8.47
2018-08-24T05:07:31.256Z,10.43
2018-08-24T05:09:59.481Z,8.03
2018-08-24T05:12:27.671Z,10.47
2018-08-24T05:14:55.960Z,9.00
2018-08-24T05:17:24.176Z,9.27
2018-08-24T05:19:52.411Z,8.60
2018-08-24T05:22:20.617Z,7.47
2018-08-24T05:24:48.912Z,7.13
2018-08-24T05:27:17.074Z,7.03
2018-08-24T05:29:45.290Z,7.53
2018-08-24T05:32:13.569Z,6.73
2018-08-24T05:34:41.788Z,6.00
2018-08-24T05:37:09.997Z,6.37
2018-08-24T05:39:38.242Z,6.80
2018-08-24T05:42:06.565Z,7.37
2018-08-24T05:44:34.765Z,6.17
2018-08-24T05:47:03.023Z,5.40
2018-08-24T05:49:31.215Z,5.40
2018-08-24T05:51:59.647Z,5.80
2018-08-24T05:54:27.874Z,5.73
2018-08-24T05:56:56.096Z,6.17
2018-08-24T05:59:24.319Z,6.40
2018-08-24T06:01:52.541Z,5.47
2018-08-24T06:04:20.741Z,6.20
2018-08-24T06:06:49.039Z,5.20
2018-08-24T06:09:17.409Z,5.20
2018-08-24T06:11:45.691Z,5.83
2018-08-24T06:14:14.343Z,9.33
2018-08-24T06:16:48.123Z,4.33
2018-08-24T06:19:16.351Z,5.17
2018-08-24T06:21:44.564Z,4.23
2018-08-24T06:24:12.798Z,7.90
2018-08-24T06:26:41.015Z,5.30
2018-08-24T06:29:09.235Z,5.87
2018-08-24T06:31:37.571Z,3.90
2018-08-24T06:34:05.806Z,5.00
2018-08-24T06:36:34.042Z,4.40
2018-08-24T06:39:02.268Z,5.83
2018-08-24T06:41:30.576Z,5.83
2018-08-24T06:43:58.775Z,5.83
2018-08-24T06:46:26.987Z,5.07
2018-08-24T06:48:55.206Z,4.27
2018-08-24T06:51:23.429Z,4.77
2018-08-24T06:53:51.657Z,3.70
2018-08-24T06:56:19.831Z,5.60
2018-08-24T06:58:48.082Z,3.57
2018-08-24T07:01:16.273Z,3.53
2018-08-24T07:03:44.479Z,4.43
2018-08-24T07:06:12.671Z,4.13
2018-08-24T07:08:40.912Z,6.70
2018-08-24T07:11:09.131Z,5.10
2018-08-24T07:13:37.343Z,3.60
2018-08-24T07:16:05.587Z,3.83
2018-08-24T07:18:37.049Z,5.07
2018-08-24T07:21:05.823Z,4.80
2018-08-24T07:23:34.612Z,4.37
2018-08-24T07:26:02.819Z,5.43
2018-08-24T07:28:31.007Z,4.50
2018-08-24T07:30:59.227Z,3.70
2018-08-24T07:33:27.407Z,5.87
2018-08-24T07:35:55.639Z,3.53
2018-08-24T07:38:23.860Z,5.10
2018-08-24T07:40:52.274Z,3.23
2018-08-24T07:43:20.600Z,4.47
2018-08-24T07:45:48.815Z,3.37
2018-08-24T07:48:17.031Z,7.63
2018-08-24T07:50:45.281Z,3.50
2018-08-24T07:53:13.555Z,3.37
2018-08-24T07:55:41.764Z,3.97
2018-08-24T07:58:09.983Z,4.07
2018-08-24T08:00:38.202Z,3.23
2018-08-24T08:03:06.417Z,3.70
2018-08-24T08:05:34.660Z,4.27
2018-08-24T08:08:02.909Z,2.37
2018-08-24T08:10:36.464Z,2.57
2018-08-24T08:13:04.999Z,3.30
2018-08-24T08:15:33.215Z,2.23
2018-08-24T08:18:01.494Z,2.17
2018-08-24T08:20:29.727Z,2.70
2018-08-24T08:22:57.939Z,2.43
2018-08-24T08:25:26.124Z,3.03
2018-08-24T08:27:55.216Z,3.00
2018-08-24T08:30:23.476Z,1.63
2018-08-24T08:32:51.793Z,1.60
2018-08-24T08:35:19.983Z,2.20
2018-08-24T08:37:48.211Z,2.10
2018-08-24T08:40:16.431Z,2.77
2018-08-24T08:42:44.710Z,2.07
2018-08-24T08:45:13.059Z,2.80
2018-08-24T08:47:41.208Z,1.90
2018-08-24T08:50:09.464Z,1.87
2018-08-24T08:52:37.707Z,3.83
2018-08-24T08:55:05.923Z,1.53
2018-08-24T08:57:34.149Z,2.03
2018-08-24T09:00:02.355Z,2.50
2018-08-24T09:02:30.644Z,1.70
2018-08-24T09:04:58.843Z,1.93
2018-08-24T09:07:27.067Z,1.50
2018-08-24T09:09:55.707Z,2.07
2018-08-24T09:12:24.021Z,2.03
2018-08-24T09:14:52.208Z,1.80
2018-08-24T09:17:25.711Z,2.30
2018-08-24T09:19:59.368Z,2.27
2018-08-24T09:22:32.916Z,3.87
2018-08-24T09:25:06.571Z,3.70
2018-08-24T09:27:45.135Z,4.57
2018-08-24T09:30:13.391Z,6.57
2018-08-24T09:32:41.814Z,3.83
2018-08-24T09:35:09.829Z,6.23
2018-08-24T09:37:39.119Z,3.37
2018-08-24T09:40:08.171Z,3.23
2018-08-24T09:42:36.415Z,2.50
2018-08-24T09:45:05.291Z,2.50
2018-08-24T09:47:38.859Z,4.60
2018-08-24T09:50:12.712Z,4.43
2018-08-24T09:52:40.936Z,2.23
2018-08-24T09:55:09.163Z,3.63
2018-08-24T09:57:37.364Z,3.40
2018-08-24T10:00:05.925Z,3.50
2018-08-24T10:02:39.655Z,2.47
2018-08-24T10:05:13.303Z,3.17
2018-08-24T10:07:45.334Z,2.50
2018-08-24T10:10:13.543Z,2.30
2018-08-24T10:12:41.729Z,2.37
2018-08-24T10:15:10.068Z,1.90
2018-08-24T10:17:38.291Z,3.40
2018-08-24T10:20:06.705Z,2.97
2018-08-24T10:22:34.919Z,2.47
2018-08-24T10:25:03.283Z,4.30
2018-08-24T10:27:31.703Z,1.97
2018-08-24T10:29:59.931Z,2.20
2018-08-24T10:32:28.168Z,2.30
2018-08-24T10:34:56.402Z,2.27
2018-08-24T10:37:24.636Z,6.30
2018-08-24T10:39:52.836Z,11.83
2018-08-24T10:42:21.059Z,3.30
2018-08-24T10:44:49.239Z,3.60
2018-08-24T10:47:17.455Z,4.43
2018-08-24T10:49:45.714Z,7.20
2018-08-24T10:52:13.896Z,7.17
2018-08-24T10:54:42.150Z,5.23
2018-08-24T10:57:10.519Z,5.20
2018-08-24T10:59:38.744Z,5.87
2018-08-24T11:02:07.091Z,9.50
2018-08-24T11:04:35.271Z,6.73
2018-08-24T11:07:03.477Z,8.00
2018-08-24T11:09:31.666Z,11.90
2018-08-24T11:11:59.902Z,7.93
2018-08-24T11:14:28.100Z,10.90
2018-08-24T11:16:56.327Z,7.10
2018-08-24T11:19:24.520Z,12.53
2018-08-24T11:21:52.844Z,11.83
2018-08-24T11:24:21.088Z,9.73
2018-08-24T11:26:49.368Z,16.70
2018-08-24T11:29:17.579Z,9.23
2018-08-24T11:31:45.802Z,10.67
2018-08-24T11:34:14.025Z,8.03
2018-08-24T11:36:42.243Z,10.43
2018-08-24T11:39:10.456Z,10.30
2018-08-24T11:41:38.692Z,8.07
2018-08-24T11:44:06.943Z,7.80
2018-08-24T11:46:35.152Z,10.80
2018-08-24T11:49:03.384Z,10.83
2018-08-24T11:51:31.715Z,7.43
2018-08-24T11:54:00.167Z,10.30
2018-08-24T11:56:28.387Z,10.23
2018-08-24T11:58:56.608Z,7.63
2018-08-24T12:01:24.843Z,8.73
2018-08-24T12:03:53.118Z,11.60
2018-08-24T12:06:21.368Z,9.00
2018-08-24T12:08:49.583Z,10.67
2018-08-24T12:11:17.810Z,12.97
2018-08-24T12:13:46.068Z,11.87
2018-08-24T12:16:14.232Z,9.83
2018-08-24T12:18:42.520Z,10.23
2018-08-24T12:21:10.739Z,11.90
2018-08-24T12:23:38.937Z,10.43
2018-08-24T12:26:07.417Z,11.83
2018-08-24T12:28:35.671Z,12.20
2018-08-24T12:31:03.965Z,13.00
2018-08-24T12:33:32.139Z,13.70
2018-08-24T12:36:00.348Z,13.33
2018-08-24T12:38:28.609Z,13.50
2018-08-24T12:40:56.836Z,15.43
2018-08-24T12:43:25.158Z,13.63
2018-08-24T12:45:53.293Z,16.03
2018-08-24T12:48:21.632Z,12.83
2018-08-24T12:50:49.844Z,12.43
2018-08-24T12:53:18.136Z,13.63
2018-08-24T12:55:46.332Z,13.87
2018-08-24T12:58:14.555Z,13.53
2018-08-24T13:00:42.757Z,14.00
2018-08-24T13:03:11.092Z,13.83
2018-08-24T13:05:39.332Z,12.37
2018-08-24T13:08:07.579Z,14.13
2018-08-24T13:10:35.808Z,13.73
2018-08-24T13:13:04.010Z,12.97
2018-08-24T13:15:32.235Z,12.47
2018-08-24T13:18:00.480Z,11.37
2018-08-24T13:20:28.809Z,12.73
2018-08-24T13:22:57.012Z,10.70
2018-08-24T13:25:25.244Z,11.43
2018-08-24T13:27:53.511Z,13.17
2018-08-24T13:30:21.700Z,16.30
2018-08-24T13:32:49.926Z,11.37
2018-08-24T13:35:18.115Z,12.27
2018-08-24T13:37:46.346Z,13.07
2018-08-24T13:40:14.565Z,12.03
2018-08-24T13:42:42.808Z,11.63
2018-08-24T13:45:11.204Z,10.47
2018-08-24T13:47:39.490Z,9.83
2018-08-24T13:50:07.716Z,10.97
2018-08-24T13:52:35.927Z,9.80
2018-08-24T13:55:04.163Z,9.00
2018-08-24T13:57:32.373Z,9.53
2018-08-24T14:00:00.629Z,8.97
2018-08-24T14:02:28.820Z,7.73
2018-08-24T14:04:57.053Z,8.03
2018-08-24T14:07:25.252Z,7.80
2018-08-24T14:09:53.468Z,8.63
2018-08-24T14:12:21.673Z,8.40
2018-08-24T14:14:49.912Z,9.70
2018-08-24T14:17:18.142Z,9.63
2018-08-24T14:19:46.356Z,6.73
2018-08-24T14:22:14.550Z,9.57
2018-08-24T14:24:42.795Z,6.97
2018-08-24T14:27:11.025Z,8.10
2018-08-24T14:29:39.248Z,7.87
2018-08-24T14:32:07.492Z,6.87
2018-08-24T14:34:35.753Z,7.27
2018-08-24T14:37:03.943Z,8.80
2018-08-24T14:39:32.147Z,8.17
2018-08-24T14:42:00.367Z,7.30
2018-08-24T14:44:28.588Z,6.87
2018-08-24T14:46:56.835Z,7.00
2018-08-24T14:49:25.195Z,8.37
2018-08-24T14:51:53.436Z,5.73
2018-08-24T14:54:21.680Z,7.67
2018-08-24T14:56:49.881Z,7.83
2018-08-24T14:59:18.273Z,6.67
2018-08-24T15:01:46.471Z,8.10
2018-08-24T15:04:14.693Z,9.87
2018-08-24T15:06:42.872Z,8.67
2018-08-24T15:09:11.915Z,6.93
2018-08-24T15:11:40.433Z,9.07
2018-08-24T15:14:09.055Z,7.30
2018-08-24T15:16:37.557Z,8.57
2018-08-24T15:19:05.999Z,7.17
2018-08-24T15:21:34.205Z,6.50
2018-08-24T15:24:02.427Z,6.80
2018-08-24T15:26:30.623Z,5.63
2018-08-24T15:28:58.852Z,7.37
2018-08-24T15:31:27.099Z,9.33
2018-08-24T15:33:55.324Z,7.67
2018-08-24T15:36:23.561Z,9.40
2018-08-24T15:38:51.820Z,7.87
2018-08-24T15:41:20.026Z,8.17
2018-08-24T15:43:48.261Z,5.90
2018-08-24T15:46:16.498Z,6.10
2018-08-24T15:48:44.688Z,7.67
2018-08-24T15:51:12.998Z,5.63
2018-08-24T15:53:41.241Z,6.40
2018-08-24T15:56:09.449Z,6.10
2018-08-24T15:58:37.668Z,7.03
2018-08-24T16:01:05.868Z,7.00
2018-08-24T16:03:34.085Z,6.33
2018-08-24T16:06:02.412Z,5.77
2018-08-24T16:08:30.665Z,4.53
2018-08-24T16:10:58.907Z,7.03
2018-08-24T16:13:27.119Z,5.90
2018-08-24T16:15:55.312Z,5.20
2018-08-24T16:18:24.336Z,6.07
2018-08-24T16:20:53.517Z,7.43
2018-08-24T16:23:21.831Z,7.83
2018-08-24T16:25:50.123Z,6.20
2018-08-24T16:28:18.864Z,5.43
2018-08-24T16:30:47.089Z,5.13
2018-08-24T16:33:15.285Z,5.83
2018-08-24T16:35:43.500Z,8.53
2018-08-24T16:38:11.692Z,5.67
2018-08-24T16:40:39.954Z,6.37
2018-08-24T16:43:08.195Z,5.73
2018-08-24T16:45:36.559Z,8.77
2018-08-24T16:48:04.792Z,6.63
2018-08-24T16:50:32.996Z,6.27
2018-08-24T16:53:01.365Z,5.57
2018-08-24T16:55:29.607Z,7.40
2018-08-24T16:57:57.837Z,5.83
2018-08-24T17:00:26.111Z,6.27
2018-08-24T17:02:54.521Z,7.53
2018-08-24T17:05:22.727Z,8.57
2018-08-24T17:07:51.240Z,6.57
2018-08-24T17:10:19.435Z,7.80
2018-08-24T17:12:47.649Z,6.03
2018-08-24T17:15:15.836Z,5.57
2018-08-24T17:17:44.020Z,6.23
2018-08-24T17:20:12.298Z,6.07
2018-08-24T17:22:40.684Z,6.73
2018-08-24T17:25:09.055Z,6.47
2018-08-24T17:27:37.280Z,7.73
2018-08-24T17:30:05.501Z,6.20
2018-08-24T17:32:33.860Z,6.87
2018-08-24T17:35:02.060Z,7.70
2018-08-24T17:37:30.300Z,7.27
2018-08-24T17:39:58.484Z,6.30
2018-08-24T17:42:26.700Z,7.97
2018-08-24T17:44:54.960Z,7.07
2018-08-24T17:47:23.179Z,5.30
2018-08-24T17:49:51.377Z,6.17
2018-08-24T17:52:19.604Z,7.90
2018-08-24T17:54:47.817Z,7.50
2018-08-24T17:57:16.016Z,7.27
2018-08-24T17:59:44.236Z,7.23
2018-08-24T18:02:12.420Z,6.60
2018-08-24T18:04:40.657Z,6.33
2018-08-24T18:07:08.915Z,5.67
2018-08-24T18:09:37.144Z,7.27
2018-08-24T18:12:05.487Z,6.10
2018-08-24T18:14:33.762Z,8.93
2018-08-24T18:17:01.949Z,6.80
2018-08-24T18:19:30.167Z,7.83
2018-08-24T18:21:58.364Z,5.83
2018-08-24T18:24:26.587Z,6.40
2018-08-24T18:26:54.768Z,8.27
2018-08-24T18:29:23.082Z,7.13
2018-08-24T18:31:51.309Z,7.83
2018-08-24T18:34:19.508Z,7.70
2018-08-24T18:36:47.844Z,7.97
2018-08-24T18:39:16.076Z,7.93
2018-08-24T18:41:44.272Z,5.87
2018-08-24T18:44:12.468Z,10.93
2018-08-24T18:46:40.706Z,7.30
2018-08-24T18:49:08.935Z,8.40
2018-08-24T18:51:37.262Z,9.33
2018-08-24T18:54:05.583Z,7.37
2018-08-24T18:56:33.865Z,6.30
2018-08-24T18:59:02.080Z,7.47
2018-08-24T19:01:30.268Z,8.43
2018-08-24T19:03:58.504Z,7.30
2018-08-24T19:06:26.742Z,7.57
2018-08-24T19:08:54.952Z,8.07
2018-08-24T19:11:28.752Z,7.80
2018-08-24T19:13:56.994Z,8.07
2018-08-24T19:16:25.170Z,5.77
2018-08-24T19:18:58.633Z,8.70
2018-08-24T19:21:32.142Z,8.77
2018-08-24T19:24:00.320Z,6.97
2018-08-24T19:26:28.528Z,7.17
2018-08-24T19:29:02.108Z,10.63
2018-08-24T19:31:30.310Z,8.27
2018-08-24T19:33:58.529Z,6.67
2018-08-24T19:36:26.728Z,7.53
2018-08-24T19:38:54.948Z,10.27
2018-08-24T19:41:28.419Z,9.60
2018-08-24T19:43:56.770Z,8.63
2018-08-24T19:46:24.920Z,6.77
2018-08-24T19:48:58.520Z,8.20
2018-08-24T19:51:26.733Z,5.77
2018-08-24T19:53:54.952Z,5.90
2018-08-24T19:56:23.134Z,6.63
2018-08-24T19:58:56.899Z,7.53
2018-08-24T20:01:25.063Z,6.57
2018-08-24T20:03:53.280Z,7.50
2018-08-24T20:06:26.816Z,7.57
2018-08-24T20:09:00.433Z,8.03
2018-08-24T20:11:28.821Z,7.20
2018-08-24T20:13:57.020Z,7.17
2018-08-24T20:16:30.627Z,6.97
2018-08-24T20:18:58.851Z,7.03
2018-08-24T20:21:27.064Z,8.20
2018-08-24T20:23:55.302Z,7.77
2018-08-24T20:26:23.485Z,7.93
2018-08-24T20:28:51.689Z,7.33
2018-08-24T20:31:19.917Z,6.80
2018-08-24T20:33:48.134Z,10.97
2018-08-24T20:36:16.400Z,10.53
2018-08-24T20:38:44.676Z,6.80
2018-08-24T20:41:12.925Z,8.50
2018-08-24T20:43:41.168Z,11.03
2018-08-24T20:46:09.377Z,7.37
2018-08-24T20:48:37.652Z,8.30
2018-08-24T20:51:05.876Z,6.33
2018-08-24T20:53:34.068Z,7.40
2018-08-24T20:56:02.372Z,9.03
2018-08-24T20:58:30.592Z,5.97
2018-08-24T21:00:58.924Z,6.00
2018-08-24T21:03:27.104Z,7.40
2018-08-24T21:05:55.431Z,9.80
2018-08-24T21:08:23.540Z,8.83
2018-08-24T21:10:51.744Z,8.40
2018-08-24T21:13:19.997Z,7.20
2018-08-24T21:15:48.192Z,7.07
2018-08-24T21:18:16.407Z,7.77
2018-08-24T21:20:44.635Z,6.93
2018-08-24T21:23:12.860Z,8.27
2018-08-24T21:25:41.060Z,6.80
2018-08-24T21:28:09.283Z,7.03
2018-08-24T21:30:37.528Z,8.53
2018-08-24T21:33:05.991Z,6.10
2018-08-24T21:35:34.204Z,8.83
2018-08-24T21:38:02.415Z,7.80
2018-08-24T21:40:30.614Z,7.30
2018-08-24T21:42:58.829Z,6.57
2018-08-24T21:45:27.020Z,8.90
2018-08-24T21:47:55.235Z,7.17
2018-08-24T21:50:23.476Z,8.07
2018-08-24T21:52:51.689Z,5.37
2018-08-24T21:55:19.913Z,6.17
2018-08-24T21:57:48.136Z,7.03
2018-08-24T22:00:16.383Z,6.37
2018-08-24T22:02:45.305Z,7.93
2018-08-24T22:05:13.532Z,5.80
2018-08-24T22:07:41.755Z,7.37
2018-08-24T22:10:10.098Z,6.00
2018-08-24T22:12:38.320Z,8.10
2018-08-24T22:15:06.592Z,7.43
2018-08-24T22:17:34.824Z,6.13
2018-08-24T22:20:03.007Z,4.17
2018-08-24T22:22:31.236Z,6.73
2018-08-24T22:24:59.452Z,4.33
2018-08-24T22:27:27.671Z,4.20
2018-08-24T22:29:55.882Z,4.83
2018-08-24T22:32:24.161Z,5.20
2018-08-24T22:34:52.401Z,6.40
2018-08-24T22:37:20.598Z,4.70
2018-08-24T22:39:48.839Z,4.63
2018-08-24T22:42:17.047Z,6.17
2018-08-24T22:44:45.236Z,5.53
2018-08-24T22:47:13.451Z,5.17
2018-08-24T22:49:41.674Z,5.03
2018-08-24T22:52:09.915Z,4.93
2018-08-24T22:54:38.168Z,5.37
2018-08-24T22:57:06.393Z,4.67
2018-08-24T22:59:34.627Z,3.90
2018-08-24T23:02:02.959Z,6.13
2018-08-24T23:04:31.151Z,6.57
2018-08-24T23:06:59.375Z,6.53
2018-08-24T23:09:27.560Z,5.50
2018-08-24T23:11:55.751Z,3.60
2018-08-24T23:14:23.968Z,4.53
2018-08-24T23:16:52.169Z,4.03
2018-08-24T23:19:20.388Z,4.80
2018-08-24T23:21:48.571Z,5.30
2018-08-24T23:24:16.771Z,7.97
2018-08-24T23:26:44.993Z,4.30
2018-08-24T23:29:13.210Z,5.20
2018-08-24T23:31:41.408Z,5.10
2018-08-24T23:34:09.630Z,4.77
2018-08-24T23:36:37.837Z,6.03
2018-08-24T23:39:08.067Z,5.57
2018-08-24T23:41:36.305Z,5.80
2018-08-24T23:44:04.513Z,3.87
2018-08-24T23:46:32.941Z,4.40
2018-08-24T23:49:01.230Z,3.10
2018-08-24T23:51:29.473Z,5.53
2018-08-24T23:53:57.758Z,6.67
2018-08-24T23:56:25.873Z,4.90
2018-08-24T23:58:54.283Z,5.50
